Time;durP1;ratioP1;P1;durP2;ratioP2;P2;SDS_P1;SDS_P2;PMS_P1;PMS_P2;Temp;Humidity;BMP_temperature;BMP_pressure;BME280_temperature;BME280_humidity;BME280_pressure;Samples;Min_cycle;Max_cycle;Signal;HPM_P1;HPM_P2
2022/11/19 13:08:38;;;;;;;14.43;4.07;;;19.60;76.10;;;;;;6131098;23;45143;-75
2022/11/19 13:11:08;;;;;;;13.43;4.43;;;18.90;75.50;;;;;;6124189;23;45461;-75
2022/11/19 13:13:41;;;;;;;27.25;4.93;;;18.90;75.60;;;;;;6145461;23;48278;-74
2022/11/19 13:16:11;;;;;;;26.75;5.45;;;18.90;76.30;;;;;;6252766;22;45318;-75
2022/11/19 13:18:42;;;;;;;33.42;5.00;;;18.90;76.50;;;;;;6308665;22;45249;-74
2022/11/19 13:21:19;;;;;;;26.23;5.03;;;18.90;76.50;;;;;;6308774;22;45463;-73
2022/11/19 13:23:54;;;;;;;29.17;5.53;;;18.90;76.30;;;;;;6307749;22;45265;-73
2022/11/19 13:26:23;;;;;;;16.73;4.82;;;18.90;76.50;;;;;;6308212;22;45342;-72
2022/11/19 13:28:54;;;;;;;22.48;5.60;;;18.90;77.00;;;;;;6307211;22;45233;-75
2022/11/19 13:31:30;;;;;;;16.45;4.60;;;18.90;76.10;;;;;;6307958;22;45476;-75
2022/11/19 13:34:03;;;;;;;18.38;5.55;;;18.90;76.50;;;;;;6310118;22;45323;-76
2022/11/19 13:36:35;;;;;;;12.25;3.78;;;18.90;76.00;;;;;;6309940;22;45075;-76
2022/11/19 13:39:13;;;;;;;10.93;4.20;;;18.80;75.30;;;;;;6310317;22;45114;-76
2022/11/19 13:44:40;;;;;;;17.63;4.50;;;18.80;74.50;;;;;;6309547;22;46331;-75
2022/11/19 13:47:13;;;;;;;11.35;4.20;;;18.80;75.20;;;;;;6310238;22;45168;-75
2022/11/19 13:50:02;;;;;;;9.70;4.00;;;18.80;73.80;;;;;;6309119;22;45199;-76
2022/11/19 13:56:22;;;;;;;10.10;3.90;;;18.70;72.60;;;;;;6182520;22;45338;-74
2022/11/19 13:59:04;;;;;;;7.55;3.13;;;18.80;73.50;;;;;;6178976;22;45499;-73
2022/11/19 14:02:18;;;;;;;13.45;3.80;;;18.70;74.20;;;;;;6185819;22;45255;-73
2022/11/19 14:05:30;;;;;;;9.05;3.72;;;18.80;73.80;;;;;;6203857;22;45233;-74
2022/11/19 14:08:18;;;;;;;5.68;3.28;;;18.80;73.30;;;;;;6276932;22;46567;-75
2022/11/19 14:11:14;;;;;;;10.50;3.45;;;18.90;72.80;;;;;;6282104;22;45281;-75
2022/11/19 14:26:18;;;;;;;5.90;3.35;;;18.80;72.10;;;;;;6280713;22;45248;-75
2022/11/19 14:27:00;;;;;;;7.18;3.17;;;18.80;71.00;;;;;;6251416;22;45187;-76
2022/11/19 14:29:55;;;;;;;5.70;3.25;;;18.80;70.80;;;;;;6252192;22;45122;-75
2022/11/19 14:32:39;;;;;;;5.45;3.08;;;18.80;70.60;;;;;;6235208;22;46871;-75
2022/11/19 14:35:27;;;;;;;5.22;3.25;;;18.80;70.30;;;;;;6255798;22;45384;-75
2022/11/19 14:41:35;;;;;;;4.35;2.55;;;18.80;69.50;;;;;;6256056;22;45525;-75
2022/11/19 14:44:16;;;;;;;5.95;2.97;;;18.70;69.90;;;;;;6260984;22;46298;-75
2022/11/19 14:47:38;;;;;;;4.45;3.13;;;18.70;69.20;;;;;;6261805;22;45147;-75
2022/11/19 14:50:08;;;;;;;4.38;3.20;;;18.70;69.50;;;;;;6267541;22;45291;-76
2022/11/19 14:52:55;;;;;;;4.68;2.75;;;18.70;69.50;;;;;;6269226;22;45155;-75
2022/11/19 14:55:41;;;;;;;9.45;2.67;;;18.70;69.80;;;;;;6265190;22;47325;-75
2022/11/19 14:58:21;;;;;;;3.95;2.75;;;18.70;69.60;;;;;;6263966;22;45247;-76
2022/11/19 15:01:12;;;;;;;3.60;2.72;;;18.70;69.60;;;;;;6266670;22;45178;-76
2022/11/19 15:13:28;;;;;;;4.57;2.67;;;18.70;69.10;;;;;;6273876;22;45175;-75
2022/11/19 15:16:12;;;;;;;4.00;2.55;;;18.80;70.10;;;;;;6274103;22;45171;-75
2022/11/19 15:19:41;;;;;;;4.95;2.80;;;18.80;70.10;;;;;;6274043;22;46246;-75
2022/11/19 15:23:03;;;;;;;3.67;2.70;;;18.80;70.30;;;;;;6273456;22;45248;-75
2022/11/19 15:26:05;;;;;;;4.30;2.90;;;18.80;70.30;;;;;;6274359;22;45323;-75
2022/11/19 16:00:55;;;;;;;3.90;2.58;;;18.70;68.30;;;;;;6171039;22;1240187;-71
2022/11/19 16:03:38;;;;;;;5.10;3.08;;;18.70;69.80;;;;;;6120155;22;46460;-71
2022/11/19 16:06:19;;;;;;;5.68;2.95;;;18.80;69.80;;;;;;6124451;22;45339;-71
2022/11/19 16:09:05;;;;;;;4.88;2.90;;;18.70;69.00;;;;;;6124257;22;45432;-71
2022/11/19 16:17:56;;;;;;;4.82;3.03;;;18.70;68.40;;;;;;5941798;23;45428;-71
2022/11/19 16:20:32;;;;;;;3.08;2.42;;;18.70;68.50;;;;;;6062613;22;45275;-71
2022/11/19 16:23:03;;;;;;;3.45;2.50;;;18.70;68.10;;;;;;6100575;22;45354;-71
2022/11/19 16:26:06;;;;;;;4.05;2.53;;;18.60;67.80;;;;;;6107769;22;47529;-71
2022/11/19 16:28:34;;;;;;;3.90;2.65;;;18.60;67.50;;;;;;6104973;22;45553;-71
2022/11/19 16:31:03;;;;;;;3.78;2.75;;;18.60;67.40;;;;;;6117330;22;45310;-71
2022/11/19 16:33:34;;;;;;;3.88;3.00;;;18.60;67.00;;;;;;6127329;22;45557;-72
2022/11/19 16:36:15;;;;;;;3.38;2.92;;;18.60;65.50;;;;;;6119298;22;46549;-72
2022/11/19 16:39:01;;;;;;;2.80;2.50;;;18.60;65.30;;;;;;6133110;22;45366;-72
2022/11/19 16:42:16;;;;;;;3.63;2.80;;;18.60;66.20;;;;;;6109699;22;45529;-72
2022/11/19 16:44:54;;;;;;;4.00;2.90;;;18.60;66.20;;;;;;6115676;22;45365;-72
2022/11/19 16:47:40;;;;;;;4.38;2.60;;;18.60;64.90;;;;;;6092663;22;45320;-72
2022/11/19 16:50:27;;;;;;;3.83;2.75;;;18.60;65.00;;;;;;6091053;22;45454;-72
2022/11/19 16:53:00;;;;;;;3.92;2.70;;;18.70;63.80;;;;;;6098807;22;45370;-72
2022/11/19 16:55:46;;;;;;;3.30;2.80;;;18.70;65.10;;;;;;6098343;22;45385;-71
2022/11/19 16:58:38;;;;;;;3.80;2.60;;;18.60;63.70;;;;;;6098983;22;47212;-71
2022/11/19 17:01:05;;;;;;;4.05;3.10;;;18.70;63.60;;;;;;6112419;22;45373;-72
2022/11/19 17:03:40;;;;;;;3.60;2.80;;;18.70;63.20;;;;;;6115280;22;45362;-71
2022/11/19 17:06:25;;;;;;;3.33;2.47;;;18.70;62.80;;;;;;6104552;22;45552;-72
2022/11/19 17:19:03;;;;;;;3.72;2.65;;;18.70;61.90;;;;;;6094797;22;45582;-72
2022/11/19 17:21:35;;;;;;;4.95;2.90;;;18.70;60.60;;;;;;6116226;22;46301;-72
2022/11/19 17:24:39;;;;;;;5.25;3.00;;;18.70;60.60;;;;;;6113704;22;45380;-71
2022/11/19 17:30:48;;;;;;;3.60;2.65;;;18.60;59.00;;;;;;6079051;22;45642;-71
2022/11/19 17:33:24;;;;;;;3.55;2.35;;;18.60;59.80;;;;;;6100732;22;47302;-71
2022/11/19 17:36:46;;;;;;;3.95;2.75;;;18.60;61.40;;;;;;6096910;22;45312;-71
2022/11/19 17:39:14;;;;;;;2.90;2.60;;;18.60;60.90;;;;;;6101076;22;45414;-71
2022/11/19 17:44:42;;;;;;;4.65;3.03;;;18.50;61.00;;;;;;6120142;22;45991;-71
2022/11/19 17:47:23;;;;;;;4.07;3.08;;;18.50;58.90;;;;;;6104515;22;45465;-72
2022/11/19 17:50:03;;;;;;;3.85;2.70;;;18.50;58.40;;;;;;6106629;22;45544;-71
2022/11/19 17:52:32;;;;;;;3.88;2.85;;;18.50;57.90;;;;;;6107101;22;45747;-71
2022/11/19 17:58:42;;;;;;;3.72;2.75;;;18.50;57.70;;;;;;6116515;22;45229;-71
2022/11/19 18:01:18;;;;;;;3.92;2.55;;;18.50;58.80;;;;;;6109558;22;45328;-71
2022/11/19 18:04:03;;;;;;;3.72;2.47;;;18.50;60.40;;;;;;6107809;22;45251;-71
2022/11/19 18:06:32;;;;;;;3.65;2.25;;;18.50;61.00;;;;;;6110460;22;46196;-72
2022/11/19 18:09:13;;;;;;;4.53;3.10;;;18.50;61.30;;;;;;6107074;22;45421;-72
2022/11/19 18:11:40;;;;;;;4.05;3.00;;;18.60;59.90;;;;;;6094846;22;45382;-72
2022/11/19 18:14:08;;;;;;;3.47;2.83;;;18.60;59.40;;;;;;6114745;22;45380;-72
2022/11/19 18:19:42;;;;;;;4.30;2.90;;;18.60;61.00;;;;;;6103334;22;45196;-73
2022/11/19 18:22:32;;;;;;;3.65;2.63;;;18.60;59.20;;;;;;6116200;22;45304;-72
2022/11/19 18:27:40;;;;;;;4.20;3.00;;;18.60;59.10;;;;;;6107879;22;45241;-72
2022/11/19 18:30:08;;;;;;;4.53;2.92;;;18.60;59.20;;;;;;6094532;22;45357;-72
2022/11/19 18:32:48;;;;;;;3.72;2.63;;;18.60;59.60;;;;;;6141241;22;45304;-72
2022/11/19 18:35:29;;;;;;;4.03;2.72;;;18.60;59.50;;;;;;6109351;22;45203;-72
2022/11/19 18:38:06;;;;;;;3.58;2.38;;;18.60;59.80;;;;;;6114481;22;46342;-72
2022/11/19 18:40:47;;;;;;;3.63;2.45;;;18.60;59.90;;;;;;6119769;22;45230;-72
2022/11/19 18:46:19;;;;;;;4.22;2.45;;;18.60;60.90;;;;;;6120772;22;45386;-72
2022/11/19 18:48:46;;;;;;;3.60;2.08;;;18.60;62.00;;;;;;6115967;22;46363;-72
2022/11/19 18:51:15;;;;;;;3.75;2.50;;;18.60;62.10;;;;;;6114418;22;45421;-72
2022/11/19 18:53:48;;;;;;;4.32;2.00;;;18.60;62.60;;;;;;6096410;22;45408;-72
2022/11/19 18:56:23;;;;;;;6.20;2.72;;;18.60;62.70;;;;;;6106874;22;45534;-72
2022/11/19 18:58:53;;;;;;;3.20;2.10;;;18.60;62.80;;;;;;6112292;22;46912;-72
2022/11/19 19:01:43;;;;;;;2.92;2.20;;;18.60;62.90;;;;;;6111731;22;45611;-72
2022/11/19 19:04:23;;;;;;;3.53;2.40;;;18.60;62.70;;;;;;6096692;22;45314;-72
2022/11/19 19:07:04;;;;;;;2.83;2.30;;;18.60;62.80;;;;;;6115760;22;45281;-72
2022/11/19 19:09:46;;;;;;;2.75;2.35;;;18.60;62.80;;;;;;6088314;22;47693;-71
2022/11/19 19:15:14;;;;;;;3.30;2.25;;;18.60;62.50;;;;;;6101549;22;45160;-72
2022/11/19 19:17:41;;;;;;;3.33;2.30;;;18.60;62.40;;;;;;6095503;22;45422;-72
2022/11/19 19:20:11;;;;;;;3.60;2.58;;;18.60;62.50;;;;;;6095511;22;46290;-72
2022/11/19 19:22:37;;;;;;;3.97;2.50;;;18.60;62.50;;;;;;6112458;22;45424;-72
2022/11/19 19:25:14;;;;;;;3.97;2.58;;;18.50;62.10;;;;;;6096191;22;45597;-72
2022/11/19 19:27:44;;;;;;;4.47;2.45;;;18.50;62.20;;;;;;6102874;22;45364;-72
2022/11/19 19:30:24;;;;;;;3.58;2.53;;;18.50;62.20;;;;;;6103548;22;46615;-72
2022/11/19 19:33:01;;;;;;;3.25;2.63;;;18.50;62.10;;;;;;6098762;22;45419;-72
2022/11/19 19:35:38;;;;;;;2.90;2.25;;;18.50;62.10;;;;;;6117524;22;45412;-72
2022/11/19 19:38:18;;;;;;;3.97;2.65;;;18.50;62.10;;;;;;6117408;22;45282;-72
2022/11/19 19:43:56;;;;;;;4.22;2.38;;;18.50;62.80;;;;;;6103604;22;45357;-72
2022/11/19 20:08:36;;;;;;;2.60;2.03;;;18.50;63.00;;;;;;6070582;22;45460;-72
2022/11/19 20:11:06;;;;;;;3.47;2.35;;;18.50;64.00;;;;;;6073922;22;45735;-72
2022/11/19 20:13:35;;;;;;;3.17;2.22;;;18.50;62.90;;;;;;6072153;22;45316;-72
2022/11/19 20:16:05;;;;;;;3.03;2.30;;;18.50;62.90;;;;;;6095626;22;45418;-72
2022/11/19 20:18:35;;;;;;;3.35;2.45;;;18.50;62.70;;;;;;6088988;22;45214;-72
2022/11/19 20:21:18;;;;;;;3.45;2.53;;;18.50;62.70;;;;;;6076862;22;46547;-72
2022/11/19 20:24:23;;;;;;;3.22;2.40;;;18.50;62.50;;;;;;6083643;22;45268;-72
2022/11/19 20:26:55;;;;;;;3.50;2.40;;;18.50;62.40;;;;;;6099612;22;45437;-72
2022/11/19 20:29:37;;;;;;;2.67;2.38;;;18.50;62.40;;;;;;6076948;22;45388;-72
2022/11/19 20:35:19;;;;;;;3.25;2.53;;;18.50;62.20;;;;;;6051408;22;45271;-72
2022/11/19 20:40:30;;;;;;;2.80;1.85;;;18.50;63.10;;;;;;6034272;22;45265;-72
2022/11/19 20:46:09;;;;;;;3.33;2.28;;;18.50;63.00;;;;;;6060478;22;45176;-72
2022/11/19 20:48:51;;;;;;;3.60;2.25;;;18.50;63.00;;;;;;6070594;22;45429;-72
2022/11/19 20:51:20;;;;;;;3.47;2.58;;;18.50;62.90;;;;;;6074978;22;45406;-72
2022/11/19 20:53:47;;;;;;;3.10;2.40;;;18.50;63.00;;;;;;6048430;22;46266;-72
2022/11/19 20:56:15;;;;;;;3.65;2.38;;;18.50;62.90;;;;;;6045282;22;45352;-72
2022/11/19 20:58:55;;;;;;;3.30;2.20;;;18.50;63.00;;;;;;6056230;22;45386;-72
2022/11/19 21:01:27;;;;;;;2.92;2.30;;;18.50;62.80;;;;;;6037591;22;45397;-72
2022/11/19 21:03:53;;;;;;;3.25;2.20;;;18.50;62.80;;;;;;6059416;22;46718;-72
2022/11/19 21:06:22;;;;;;;3.17;2.20;;;18.50;62.50;;;;;;6040307;22;45438;-72
2022/11/19 21:09:03;;;;;;;3.67;2.47;;;18.50;62.40;;;;;;6058412;22;45291;-72
2022/11/19 21:11:40;;;;;;;3.10;2.35;;;18.50;62.20;;;;;;6048937;22;45479;-72
2022/11/19 21:14:39;;;;;;;3.42;2.38;;;18.50;62.10;;;;;;6042673;22;46712;-72
2022/11/19 21:17:19;;;;;;;3.67;2.50;;;18.40;61.70;;;;;;6040321;22;45410;-72
2022/11/19 21:19:47;;;;;;;3.10;2.15;;;18.40;61.70;;;;;;6039251;22;45182;-72
2022/11/19 21:22:23;;;;;;;3.85;2.40;;;18.40;61.60;;;;;;6033583;22;45525;-72
2022/11/19 21:25:03;;;;;;;3.35;2.35;;;18.40;61.40;;;;;;6047805;22;47156;-72
2022/11/19 21:27:40;;;;;;;3.22;2.45;;;18.40;61.30;;;;;;6038209;22;45445;-72
2022/11/19 21:30:17;;;;;;;3.50;2.58;;;18.40;61.20;;;;;;6040375;22;45370;-72
2022/11/19 21:32:47;;;;;;;4.50;2.72;;;18.40;61.70;;;;;;6046586;22;45386;-72
2022/11/19 21:35:14;;;;;;;4.80;2.80;;;18.40;62.20;;;;;;6049584;22;46998;-72
2022/11/19 21:38:03;;;;;;;3.08;2.55;;;18.40;62.30;;;;;;6038850;22;45587;-72
2022/11/19 21:40:44;;;;;;;4.07;2.55;;;18.40;62.10;;;;;;6033744;22;45414;-72
2022/11/19 21:43:41;;;;;;;4.30;2.50;;;18.40;62.40;;;;;;6045543;22;45294;-72
2022/11/19 21:46:14;;;;;;;3.58;2.50;;;18.40;62.40;;;;;;6048761;22;46497;-72
2022/11/19 21:48:41;;;;;;;4.10;2.67;;;18.40;62.40;;;;;;6044159;22;45510;-72
2022/11/19 21:51:17;;;;;;;3.42;2.42;;;18.40;62.60;;;;;;6054778;22;45423;-72
2022/11/19 21:53:44;;;;;;;3.70;2.40;;;18.40;62.50;;;;;;6058906;22;45290;-72
2022/11/19 21:56:27;;;;;;;3.25;2.42;;;18.40;62.20;;;;;;6054565;22;46417;-72
2022/11/19 21:58:55;;;;;;;4.05;2.50;;;18.40;62.20;;;;;;6039589;22;45327;-73
2022/11/19 22:01:32;;;;;;;4.13;2.65;;;18.40;62.00;;;;;;6068737;22;45495;-72
2022/11/19 22:03:59;;;;;;;3.67;2.60;;;18.40;61.90;;;;;;6036343;22;45525;-72
2022/11/19 22:06:27;;;;;;;2.90;2.22;;;18.40;61.80;;;;;;6061943;22;46467;-72
2022/11/19 22:09:01;;;;;;;3.92;2.38;;;18.40;61.70;;;;;;6048977;22;45355;-72
2022/11/19 22:11:38;;;;;;;3.97;2.25;;;18.40;61.80;;;;;;6031801;22;45196;-72
2022/11/19 22:14:18;;;;;;;3.55;2.45;;;18.40;61.50;;;;;;6036817;22;45228;-72
2022/11/19 22:16:53;;;;;;;3.10;2.35;;;18.40;61.70;;;;;;6043089;22;45683;-72
2022/11/19 22:19:24;;;;;;;3.67;2.65;;;18.40;62.50;;;;;;6048498;22;45208;-72
2022/11/19 22:22:04;;;;;;;5.15;2.80;;;18.40;61.30;;;;;;6042270;22;45452;-72
2022/11/19 22:24:36;;;;;;;3.33;2.45;;;18.40;61.50;;;;;;6027202;22;45557;-72
2022/11/19 22:27:21;;;;;;;5.70;2.40;;;18.40;61.70;;;;;;6048663;22;47544;-72
2022/11/19 22:29:55;;;;;;;3.53;2.42;;;18.40;61.90;;;;;;6044557;22;45455;-72
2022/11/19 22:32:21;;;;;;;3.85;2.70;;;18.40;62.20;;;;;;6064182;22;45302;-72
2022/11/19 22:35:03;;;;;;;4.03;2.72;;;18.40;62.30;;;;;;6040975;22;45427;-72
2022/11/19 22:37:47;;;;;;;3.67;2.63;;;18.40;62.10;;;;;;6049801;22;47359;-72
2022/11/19 22:40:40;;;;;;;4.72;2.58;;;18.40;62.20;;;;;;6048576;22;45533;-72
2022/11/19 22:43:22;;;;;;;3.47;2.45;;;18.40;62.30;;;;;;6052687;22;45423;-72
2022/11/19 22:45:51;;;;;;;4.88;2.40;;;18.40;62.20;;;;;;6043656;22;45582;-72
2022/11/19 22:48:18;;;;;;;3.75;2.33;;;18.40;62.30;;;;;;6053986;22;46361;-72
2022/11/19 22:51:04;;;;;;;5.18;2.72;;;18.40;62.30;;;;;;6040936;22;45468;-72
2022/11/19 22:53:46;;;;;;;3.65;2.63;;;18.40;62.30;;;;;;6029809;22;45409;-72
2022/11/19 22:56:20;;;;;;;4.00;2.55;;;18.40;62.00;;;;;;6049844;22;45475;-72
2022/11/19 22:59:04;;;;;;;3.97;2.50;;;18.40;61.90;;;;;;6029494;22;47261;-72
2022/11/19 23:01:35;;;;;;;3.10;2.42;;;18.40;61.80;;;;;;6047090;22;45254;-72
2022/11/19 23:04:16;;;;;;;4.00;2.63;;;18.40;61.70;;;;;;6033467;22;45504;-72
2022/11/19 23:06:43;;;;;;;4.35;2.90;;;18.40;61.30;;;;;;6062214;22;45256;-72
2022/11/19 23:09:32;;;;;;;3.80;2.80;;;18.40;61.40;;;;;;6054910;22;47118;-72
2022/11/19 23:14:55;;;;;;;3.15;2.65;;;18.40;61.10;;;;;;6067550;22;45298;-72
2022/11/19 23:17:46;;;;;;;4.72;2.70;;;18.40;61.20;;;;;;6044466;22;45207;-72
2022/11/19 23:20:17;;;;;;;4.45;2.60;;;18.40;61.00;;;;;;6025586;22;46038;-72
2022/11/19 23:22:45;;;;;;;3.15;2.38;;;18.40;61.00;;;;;;6045923;22;45476;-72
2022/11/19 23:25:23;;;;;;;3.95;2.55;;;18.40;61.60;;;;;;6035076;22;45435;-72
2022/11/19 23:27:56;;;;;;;4.35;2.67;;;18.40;62.00;;;;;;6053691;22;45465;-72
2022/11/19 23:30:28;;;;;;;4.80;2.90;;;18.40;61.90;;;;;;6045199;22;47078;-72
2022/11/19 23:33:23;;;;;;;4.18;2.72;;;18.40;62.10;;;;;;6044724;22;45254;-72
2022/11/19 23:35:50;;;;;;;3.88;2.17;;;18.40;62.30;;;;;;6038396;22;45332;-72
2022/11/19 23:38:35;;;;;;;3.42;2.47;;;18.40;62.10;;;;;;6041230;22;45541;-72
2022/11/19 23:43:52;;;;;;;3.90;2.38;;;18.40;62.30;;;;;;6052386;22;45401;-72
2022/11/19 23:46:25;;;;;;;2.78;2.08;;;18.40;62.10;;;;;;6036413;22;45282;-72
2022/11/19 23:49:33;;;;;;;3.55;2.60;;;18.40;62.10;;;;;;6049311;22;45340;-72
2022/11/19 23:52:00;;;;;;;3.40;2.38;;;18.40;63.10;;;;;;6037313;22;46575;-73
2022/11/19 23:54:26;;;;;;;4.30;2.90;;;18.40;61.90;;;;;;6041460;22;45439;-72
2022/11/19 23:56:55;;;;;;;4.22;2.78;;;18.40;61.90;;;;;;6067259;22;45302;-72
2022/11/19 23:59:34;;;;;;;3.67;2.58;;;18.40;61.90;;;;;;6050686;22;45404;-73
